createdAt,value
2017-10-29T00:01:02.696Z,15.00
2017-10-29T00:03:30.937Z,15.00
2017-10-29T00:05:58.408Z,14.90
2017-10-29T00:08:25.876Z,14.90
2017-10-29T00:10:53.975Z,14.90
2017-10-29T00:13:21.528Z,14.90
2017-10-29T00:15:49.003Z,14.80
2017-10-29T00:18:17.242Z,14.80
2017-10-29T00:20:44.719Z,14.80
2017-10-29T00:23:12.192Z,14.70
2017-10-29T00:25:40.422Z,14.70
2017-10-29T00:28:07.896Z,14.70
2017-10-29T00:30:35.362Z,14.70
2017-10-29T00:33:02.824Z,14.60
2017-10-29T00:35:30.292Z,14.60
2017-10-29T00:37:59.552Z,14.50
2017-10-29T00:40:27.043Z,14.50
2017-10-29T00:42:55.264Z,14.50
2017-10-29T00:45:22.762Z,14.50
2017-10-29T00:47:50.231Z,14.50
2017-10-29T00:50:18.483Z,14.50
2017-10-29T00:52:45.958Z,14.40
2017-10-29T00:55:13.436Z,14.50
2017-10-29T00:57:41.663Z,14.40
2017-10-29T01:00:09.912Z,14.40
2017-10-29T01:02:37.382Z,14.40
2017-10-29T01:05:04.860Z,14.30
2017-10-29T01:07:33.120Z,14.30
2017-10-29T01:10:00.591Z,14.30
2017-10-29T01:12:28.055Z,14.30
2017-10-29T01:14:55.523Z,14.30
2017-10-29T01:17:23.007Z,14.40
2017-10-29T01:19:51.549Z,14.40
2017-10-29T01:22:20.529Z,14.50
2017-10-29T01:24:47.995Z,14.50
2017-10-29T01:27:15.470Z,14.50
2017-10-29T01:29:42.936Z,14.60
2017-10-29T01:32:11.193Z,14.60
2017-10-29T01:34:38.761Z,14.60
2017-10-29T01:37:06.308Z,14.60
2017-10-29T01:39:33.864Z,14.60
2017-10-29T01:42:01.423Z,14.60
2017-10-29T01:44:29.041Z,14.70
2017-10-29T01:46:56.597Z,14.70
2017-10-29T01:49:24.060Z,14.70
2017-10-29T01:51:51.525Z,14.70
2017-10-29T01:54:19.413Z,14.70
2017-10-29T01:56:46.987Z,14.80
2017-10-29T01:59:14.536Z,14.80
2017-10-29T02:01:42.015Z,14.80
2017-10-29T02:04:10.235Z,14.70
2017-10-29T02:06:37.739Z,14.70
2017-10-29T02:09:05.210Z,14.50
2017-10-29T02:11:33.445Z,14.50
2017-10-29T02:14:01.024Z,14.40
2017-10-29T02:16:28.499Z,14.50
2017-10-29T02:18:56.740Z,14.50
2017-10-29T02:21:24.206Z,14.50
2017-10-29T02:23:51.697Z,14.60
2017-10-29T02:26:20.563Z,14.60
2017-10-29T02:28:48.030Z,14.60
2017-10-29T02:31:16.265Z,14.60
2017-10-29T02:33:43.731Z,14.60
2017-10-29T02:36:11.205Z,14.40
2017-10-29T02:38:39.407Z,14.30
2017-10-29T02:41:06.939Z,14.20
2017-10-29T02:43:34.420Z,14.10
2017-10-29T02:46:02.663Z,14.30
2017-10-29T02:48:30.216Z,14.30
2017-10-29T02:50:58.523Z,14.40
2017-10-29T02:53:26.742Z,14.50
2017-10-29T02:55:54.219Z,14.40
2017-10-29T02:58:21.691Z,14.50
2017-10-29T03:00:49.151Z,14.50
2017-10-29T03:03:16.623Z,14.50
2017-10-29T03:05:44.851Z,14.60
2017-10-29T03:08:12.339Z,14.50
2017-10-29T03:10:40.820Z,14.60
2017-10-29T03:13:08.287Z,14.60
2017-10-29T03:15:36.544Z,14.50
2017-10-29T03:18:04.012Z,14.50
2017-10-29T03:20:31.828Z,14.50
2017-10-29T03:23:00.355Z,14.50
2017-10-29T03:25:27.837Z,14.50
2017-10-29T03:27:56.076Z,14.50
2017-10-29T03:30:23.547Z,14.50
2017-10-29T03:32:51.796Z,14.50
2017-10-29T03:35:19.255Z,14.40
2017-10-29T03:37:46.744Z,14.00
2017-10-29T03:40:14.233Z,13.50
2017-10-29T03:42:41.706Z,13.20
2017-10-29T03:45:09.166Z,12.90
2017-10-29T03:47:36.636Z,12.70
2017-10-29T03:50:04.112Z,12.60
2017-10-29T03:52:31.568Z,12.40
2017-10-29T03:54:59.832Z,12.30
2017-10-29T03:57:27.287Z,12.30
2017-10-29T03:59:54.754Z,12.30
2017-10-29T04:02:22.227Z,12.30
2017-10-29T04:04:50.495Z,12.30
2017-10-29T04:07:17.962Z,12.30
2017-10-29T04:09:46.558Z,12.30
2017-10-29T04:12:14.091Z,12.30
2017-10-29T04:14:41.559Z,12.40
2017-10-29T04:17:09.800Z,12.40
2017-10-29T04:19:37.302Z,12.40
2017-10-29T04:22:05.521Z,12.50
2017-10-29T04:24:33.015Z,12.50
2017-10-29T04:27:00.491Z,12.50
2017-10-29T04:29:28.711Z,12.60
2017-10-29T04:31:56.179Z,12.50
2017-10-29T04:34:23.659Z,12.40
2017-10-29T04:36:51.124Z,12.10
2017-10-29T04:39:19.369Z,11.90
2017-10-29T04:41:46.848Z,11.90
2017-10-29T04:44:14.315Z,11.90
2017-10-29T04:46:42.556Z,11.90
2017-10-29T04:49:10.015Z,11.80
2017-10-29T04:51:38.116Z,11.90
2017-10-29T04:54:05.579Z,12.00
2017-10-29T04:56:33.840Z,12.10
2017-10-29T04:59:01.299Z,12.10
2017-10-29T05:01:29.563Z,12.20
2017-10-29T05:03:58.156Z,12.10
2017-10-29T05:06:25.619Z,12.10
2017-10-29T05:08:53.881Z,12.10
2017-10-29T05:11:21.445Z,12.10
2017-10-29T05:13:48.904Z,12.10
2017-10-29T05:16:16.454Z,12.10
2017-10-29T05:18:44.014Z,12.10
2017-10-29T05:21:11.481Z,12.00
2017-10-29T05:23:38.974Z,12.00
2017-10-29T05:26:06.451Z,11.90
2017-10-29T05:28:33.952Z,11.90
2017-10-29T05:31:01.499Z,11.80
2017-10-29T05:33:28.963Z,11.90
2017-10-29T05:35:56.433Z,11.90
2017-10-29T05:38:24.672Z,11.90
2017-10-29T05:40:52.150Z,11.90
2017-10-29T05:43:19.624Z,11.90
2017-10-29T05:45:47.863Z,11.90
2017-10-29T05:48:15.318Z,11.90
2017-10-29T05:50:42.795Z,11.90
2017-10-29T05:53:10.263Z,11.90
2017-10-29T05:55:39.451Z,11.80
2017-10-29T05:58:07.006Z,11.80
2017-10-29T06:00:34.476Z,11.80
2017-10-29T06:03:02.698Z,11.70
2017-10-29T06:05:30.160Z,11.60
2017-10-29T06:07:58.251Z,11.60
2017-10-29T06:10:25.815Z,11.50
2017-10-29T06:12:53.379Z,11.50
2017-10-29T06:15:20.843Z,11.40
2017-10-29T06:17:48.403Z,11.40
2017-10-29T06:20:15.960Z,11.30
2017-10-29T06:22:44.318Z,11.30
2017-10-29T06:25:11.886Z,11.30
2017-10-29T06:27:39.362Z,11.30
2017-10-29T06:30:07.595Z,11.30
2017-10-29T06:32:35.060Z,11.30
2017-10-29T06:35:02.547Z,11.30
2017-10-29T06:37:30.091Z,11.30
2017-10-29T06:39:58.080Z,11.20
2017-10-29T06:42:26.322Z,11.10
2017-10-29T06:44:53.956Z,11.10
2017-10-29T06:47:21.429Z,11.10
2017-10-29T06:49:48.910Z,11.10
2017-10-29T06:52:17.187Z,11.20
2017-10-29T06:54:44.846Z,11.20
2017-10-29T06:57:12.408Z,11.20
2017-10-29T06:59:39.879Z,11.20
2017-10-29T07:02:08.104Z,11.20
2017-10-29T07:04:36.394Z,11.10
2017-10-29T07:07:03.984Z,11.20
2017-10-29T07:09:31.854Z,11.20
2017-10-29T07:12:00.117Z,11.20
2017-10-29T07:14:27.591Z,11.20
2017-10-29T07:16:55.839Z,11.10
2017-10-29T07:19:23.417Z,11.10
2017-10-29T07:21:50.882Z,11.20
2017-10-29T07:24:19.152Z,11.30
2017-10-29T07:26:46.612Z,11.30
2017-10-29T07:29:14.879Z,11.40
2017-10-29T07:31:43.153Z,11.30
2017-10-29T07:34:10.625Z,11.30
2017-10-29T07:36:39.265Z,11.30
2017-10-29T07:39:06.752Z,11.20
2017-10-29T07:41:34.321Z,11.20
2017-10-29T07:44:01.873Z,11.20
2017-10-29T07:46:29.900Z,11.30
2017-10-29T07:48:57.379Z,11.30
2017-10-29T07:51:24.856Z,11.40
2017-10-29T07:53:52.407Z,11.40
2017-10-29T07:56:20.815Z,11.40
2017-10-29T07:58:49.036Z,11.40
2017-10-29T08:01:16.499Z,11.40
2017-10-29T08:03:44.664Z,11.40
2017-10-29T08:06:12.138Z,11.50
2017-10-29T08:08:39.622Z,11.50
2017-10-29T08:11:07.892Z,11.50
2017-10-29T08:13:36.139Z,11.60
2017-10-29T08:16:03.725Z,11.60
2017-10-29T08:18:31.989Z,11.70
2017-10-29T08:20:59.474Z,11.60
2017-10-29T08:23:27.711Z,11.80
2017-10-29T08:25:55.184Z,11.80
2017-10-29T08:28:22.732Z,12.00
2017-10-29T08:30:50.214Z,12.10
2017-10-29T08:33:19.153Z,12.20
2017-10-29T08:35:46.631Z,12.20
2017-10-29T08:38:14.919Z,12.30
2017-10-29T08:40:43.206Z,12.30
2017-10-29T08:43:10.674Z,12.20
2017-10-29T08:45:40.810Z,11.80
2017-10-29T08:48:08.338Z,11.80
2017-10-29T08:50:35.816Z,11.80
2017-10-29T08:53:04.044Z,11.80
2017-10-29T08:55:32.041Z,11.80
2017-10-29T08:57:59.507Z,11.90
2017-10-29T09:00:27.734Z,12.10
2017-10-29T09:02:55.200Z,12.10
2017-10-29T09:05:22.784Z,12.10
2017-10-29T09:07:50.257Z,12.10
2017-10-29T09:10:19.215Z,12.30
2017-10-29T09:12:46.705Z,12.20
2017-10-29T09:15:14.933Z,12.40
2017-10-29T09:17:42.427Z,12.40
2017-10-29T09:20:10.683Z,12.40
2017-10-29T09:22:38.156Z,12.40
2017-10-29T09:25:05.703Z,12.30
2017-10-29T09:27:33.180Z,12.30
2017-10-29T09:30:01.457Z,12.30
2017-10-29T09:32:29.827Z,12.60
2017-10-29T09:34:57.365Z,12.60
2017-10-29T09:37:24.952Z,12.80
2017-10-29T09:39:53.179Z,12.80
2017-10-29T09:42:20.663Z,12.80
2017-10-29T09:44:48.131Z,12.70
2017-10-29T09:47:16.373Z,12.60
2017-10-29T09:49:43.855Z,12.60
2017-10-29T09:52:11.328Z,12.80
2017-10-29T09:54:40.167Z,12.80
2017-10-29T09:57:07.644Z,12.70
2017-10-29T09:59:35.727Z,12.80
2017-10-29T10:02:03.194Z,13.00
2017-10-29T10:04:30.670Z,13.10
2017-10-29T10:06:59.809Z,13.40
2017-10-29T10:09:27.275Z,13.40
2017-10-29T10:11:54.748Z,13.50
2017-10-29T10:14:22.311Z,13.60
2017-10-29T10:16:49.774Z,13.80
2017-10-29T10:19:17.243Z,14.10
2017-10-29T10:21:45.496Z,14.40
2017-10-29T10:24:12.977Z,14.40
2017-10-29T10:26:41.273Z,14.10
2017-10-29T10:29:08.787Z,14.10
2017-10-29T10:31:36.260Z,13.80
2017-10-29T10:34:03.739Z,13.60
2017-10-29T10:36:31.331Z,13.40
2017-10-29T10:39:00.207Z,13.30
2017-10-29T10:41:27.672Z,13.50
2017-10-29T10:43:55.381Z,13.40
2017-10-29T10:46:22.923Z,13.30
2017-10-29T10:48:50.383Z,13.20
2017-10-29T10:51:17.859Z,13.30
2017-10-29T10:53:45.339Z,13.50
2017-10-29T10:56:12.851Z,13.60
2017-10-29T10:58:40.336Z,13.70
2017-10-29T11:01:08.588Z,14.20
2017-10-29T11:03:36.064Z,14.10
2017-10-29T11:06:04.309Z,14.20
2017-10-29T11:08:31.776Z,14.30
2017-10-29T11:10:59.255Z,14.50
2017-10-29T11:13:28.481Z,14.90
2017-10-29T11:15:55.970Z,14.90
2017-10-29T11:18:23.464Z,14.90
2017-10-29T11:20:52.295Z,14.50
2017-10-29T11:23:19.785Z,14.50
2017-10-29T11:25:47.928Z,14.40
2017-10-29T11:28:15.387Z,14.30
2017-10-29T11:30:42.882Z,14.20
2017-10-29T11:33:10.381Z,14.10
2017-10-29T11:35:37.886Z,14.10
2017-10-29T11:38:05.347Z,14.30
2017-10-29T11:40:32.811Z,14.50
2017-10-29T11:43:00.291Z,14.50
2017-10-29T11:45:28.539Z,14.70
2017-10-29T11:47:56.016Z,14.70
2017-10-29T11:50:24.242Z,14.00
2017-10-29T11:52:52.223Z,14.00
2017-10-29T11:55:19.712Z,13.70
2017-10-29T11:57:48.023Z,13.90
2017-10-29T12:00:15.504Z,13.90
2017-10-29T12:02:44.020Z,13.80
2017-10-29T12:05:12.275Z,14.00
2017-10-29T12:07:39.754Z,13.90
2017-10-29T12:10:07.231Z,14.00
2017-10-29T12:12:35.681Z,14.10
2017-10-29T12:15:03.176Z,14.00
2017-10-29T12:17:30.678Z,14.00
2017-10-29T12:19:58.144Z,13.80
2017-10-29T12:22:25.628Z,13.40
2017-10-29T12:24:53.896Z,12.80
2017-10-29T12:27:21.443Z,12.80
2017-10-29T12:29:49.739Z,12.70
2017-10-29T12:32:18.021Z,12.70
2017-10-29T12:34:45.724Z,12.70
2017-10-29T12:37:14.239Z,12.80
2017-10-29T12:39:43.315Z,13.80
2017-10-29T12:42:12.042Z,13.70
2017-10-29T12:44:39.532Z,14.20
2017-10-29T12:47:07.006Z,14.20
2017-10-29T12:49:34.462Z,14.10
2017-10-29T12:52:01.932Z,13.90
2017-10-29T12:54:29.403Z,14.00
2017-10-29T12:56:56.863Z,13.90
2017-10-29T12:59:24.331Z,13.70
2017-10-29T13:01:51.877Z,13.80
2017-10-29T13:04:20.061Z,14.30
2017-10-29T13:06:47.527Z,14.60
2017-10-29T13:09:15.795Z,13.90
2017-10-29T13:11:44.045Z,13.60
2017-10-29T13:14:11.503Z,13.50
2017-10-29T13:16:38.980Z,13.60
2017-10-29T13:19:07.248Z,14.10
2017-10-29T13:21:35.660Z,14.10
2017-10-29T13:24:03.885Z,13.70
2017-10-29T13:26:31.350Z,13.60
2017-10-29T13:28:59.393Z,13.70
2017-10-29T13:31:26.873Z,13.80
2017-10-29T13:33:54.337Z,13.70
2017-10-29T13:36:21.796Z,13.40
2017-10-29T13:38:49.273Z,13.20
2017-10-29T13:41:17.504Z,13.60
2017-10-29T13:43:44.972Z,13.60
2017-10-29T13:46:12.447Z,13.70
2017-10-29T13:48:40.224Z,13.60
2017-10-29T13:51:08.443Z,13.40
2017-10-29T13:53:35.963Z,13.40
2017-10-29T13:56:04.205Z,13.40
2017-10-29T13:58:31.655Z,13.30
2017-10-29T14:00:59.141Z,13.30
2017-10-29T14:03:27.385Z,13.30
2017-10-29T14:05:54.846Z,13.30
2017-10-29T14:08:22.311Z,13.50
2017-10-29T14:10:49.776Z,13.60
2017-10-29T14:13:17.236Z,13.70
2017-10-29T14:15:44.731Z,13.70
2017-10-29T14:18:12.189Z,13.70
2017-10-29T14:20:39.644Z,13.50
2017-10-29T14:23:07.127Z,13.20
2017-10-29T14:25:34.596Z,13.10
2017-10-29T14:28:02.060Z,13.00
2017-10-29T14:30:29.563Z,12.80
2017-10-29T14:32:57.359Z,12.50
2017-10-29T14:35:24.824Z,12.30
2017-10-29T14:37:52.309Z,12.20
2017-10-29T14:40:20.788Z,12.00
2017-10-29T14:42:48.247Z,11.90
2017-10-29T14:45:15.719Z,11.90
2017-10-29T14:47:43.952Z,11.80
2017-10-29T14:50:11.420Z,11.80
2017-10-29T14:52:38.995Z,11.80
2017-10-29T14:55:07.468Z,12.00
2017-10-29T14:57:34.920Z,12.10
2017-10-29T15:00:02.493Z,12.10
2017-10-29T15:02:30.735Z,12.20
2017-10-29T15:04:58.201Z,12.20
2017-10-29T15:07:26.417Z,12.20
2017-10-29T15:09:54.678Z,12.10
2017-10-29T15:12:22.220Z,12.10
2017-10-29T15:14:50.494Z,11.90
2017-10-29T15:17:17.956Z,11.90
2017-10-29T15:19:45.425Z,11.80
2017-10-29T15:22:13.663Z,11.70
2017-10-29T15:24:42.099Z,11.70
2017-10-29T15:27:09.572Z,11.70
2017-10-29T15:29:37.055Z,11.70
2017-10-29T15:32:04.523Z,11.60
2017-10-29T15:34:31.999Z,11.30
2017-10-29T15:36:59.676Z,11.20
2017-10-29T15:39:27.935Z,10.80
2017-10-29T15:41:55.430Z,10.80
2017-10-29T15:44:23.643Z,10.60
2017-10-29T15:46:51.112Z,10.60
2017-10-29T15:49:18.688Z,10.50
2017-10-29T15:51:46.158Z,10.40
2017-10-29T15:54:14.374Z,10.20
2017-10-29T15:56:41.855Z,10.20
2017-10-29T15:59:09.996Z,10.20
2017-10-29T16:01:37.459Z,10.10
2017-10-29T16:04:04.941Z,10.10
2017-10-29T16:06:32.394Z,10.00
2017-10-29T16:08:59.843Z,9.90
2017-10-29T16:11:27.326Z,9.90
2017-10-29T16:13:54.783Z,9.90
2017-10-29T16:16:22.249Z,9.80
2017-10-29T16:18:50.483Z,9.80
2017-10-29T16:21:17.937Z,9.80
2017-10-29T16:23:45.391Z,9.70
2017-10-29T16:26:12.872Z,9.70
2017-10-29T16:28:41.228Z,9.70
2017-10-29T16:31:08.697Z,9.60
2017-10-29T16:33:36.161Z,9.70
2017-10-29T16:36:03.613Z,9.70
2017-10-29T16:38:31.067Z,9.60
2017-10-29T16:40:59.176Z,9.60
2017-10-29T16:43:26.648Z,9.50
2017-10-29T16:45:54.117Z,9.50
2017-10-29T16:48:21.633Z,9.60
2017-10-29T16:50:49.084Z,9.70
2017-10-29T16:53:17.340Z,9.70
2017-10-29T16:55:44.812Z,9.70
2017-10-29T16:58:12.335Z,9.60
2017-10-29T17:00:39.827Z,9.50
2017-10-29T17:03:07.307Z,9.50
2017-10-29T17:05:35.554Z,9.60
2017-10-29T17:08:03.949Z,9.50
2017-10-29T17:10:32.189Z,9.50
2017-10-29T17:12:59.690Z,9.50
2017-10-29T17:15:27.919Z,9.40
2017-10-29T17:17:55.383Z,9.40
2017-10-29T17:20:22.888Z,9.40
2017-10-29T17:22:51.856Z,9.50
2017-10-29T17:25:19.321Z,9.50
2017-10-29T17:27:46.812Z,9.50
2017-10-29T17:30:15.210Z,9.50
2017-10-29T17:32:42.688Z,9.50
2017-10-29T17:35:10.158Z,9.40
2017-10-29T17:37:37.614Z,9.40
2017-10-29T17:40:05.087Z,9.30
2017-10-29T17:42:32.557Z,9.20
2017-10-29T17:45:00.793Z,9.10
2017-10-29T17:47:28.244Z,9.10
2017-10-29T17:49:55.720Z,9.10
2017-10-29T17:52:23.182Z,9.10
2017-10-29T17:54:51.540Z,9.00
2017-10-29T17:57:19.029Z,9.00
2017-10-29T17:59:46.536Z,9.00
2017-10-29T18:02:14.003Z,8.90
2017-10-29T18:04:41.567Z,8.90
2017-10-29T18:07:09.039Z,8.80
2017-10-29T18:09:36.491Z,8.80
2017-10-29T18:12:03.963Z,8.80
2017-10-29T18:14:32.193Z,8.70
2017-10-29T18:16:59.681Z,8.70
2017-10-29T18:19:27.147Z,8.70
2017-10-29T18:21:54.608Z,8.60
2017-10-29T18:24:22.105Z,8.70
2017-10-29T18:26:49.573Z,8.70
2017-10-29T18:29:17.032Z,8.70
2017-10-29T18:31:44.491Z,8.70
2017-10-29T18:34:12.036Z,8.80
2017-10-29T18:36:39.488Z,8.90
2017-10-29T18:39:06.952Z,8.90
2017-10-29T18:41:34.419Z,8.90
2017-10-29T18:44:01.871Z,9.00
2017-10-29T18:46:29.332Z,8.90
2017-10-29T18:48:56.817Z,8.90
2017-10-29T18:51:24.384Z,8.90
2017-10-29T18:53:51.838Z,8.90
2017-10-29T18:56:19.315Z,8.80
2017-10-29T18:58:47.625Z,8.80
2017-10-29T19:01:15.092Z,8.80
2017-10-29T19:03:42.559Z,8.90
2017-10-29T19:06:10.244Z,9.00
2017-10-29T19:08:37.703Z,9.00
2017-10-29T19:11:05.180Z,9.00
2017-10-29T19:13:33.395Z,9.10
2017-10-29T19:16:00.877Z,9.00
2017-10-29T19:18:28.349Z,9.10
2017-10-29T19:20:55.820Z,9.10
2017-10-29T19:23:24.052Z,8.90
2017-10-29T19:25:51.529Z,8.90
2017-10-29T19:28:18.984Z,8.90
2017-10-29T19:30:46.436Z,8.90
2017-10-29T19:33:13.909Z,8.90
2017-10-29T19:35:41.371Z,8.80
2017-10-29T19:38:08.820Z,8.80
2017-10-29T19:40:36.288Z,8.80
2017-10-29T19:43:03.763Z,8.80
2017-10-29T19:45:31.996Z,8.80
2017-10-29T19:47:59.450Z,8.80
2017-10-29T19:50:26.923Z,8.80
2017-10-29T19:52:55.200Z,8.80
2017-10-29T19:55:22.760Z,8.80
2017-10-29T19:57:50.225Z,8.80
2017-10-29T20:00:17.784Z,8.80
2017-10-29T20:02:46.029Z,8.80
2017-10-29T20:05:13.492Z,8.80
2017-10-29T20:07:40.947Z,8.80
2017-10-29T20:10:08.441Z,8.80
2017-10-29T20:12:35.908Z,8.80
2017-10-29T20:15:03.623Z,8.90
2017-10-29T20:17:31.079Z,9.00
2017-10-29T20:19:59.272Z,9.00
2017-10-29T20:22:26.763Z,9.00
2017-10-29T20:24:54.288Z,8.90
2017-10-29T20:27:21.748Z,8.90
2017-10-29T20:29:49.203Z,9.00
2017-10-29T20:32:16.667Z,9.10
2017-10-29T20:34:44.940Z,9.00
2017-10-29T20:37:13.172Z,9.00
2017-10-29T20:39:41.143Z,9.00
2017-10-29T20:42:08.607Z,8.90
2017-10-29T20:44:36.072Z,8.90
2017-10-29T20:47:03.523Z,8.90
2017-10-29T20:49:30.996Z,8.80
2017-10-29T20:51:58.447Z,8.80
2017-10-29T20:54:26.696Z,8.80
2017-10-29T20:56:55.139Z,8.80
2017-10-29T20:59:22.604Z,8.80
2017-10-29T21:01:50.088Z,8.90
2017-10-29T21:04:17.540Z,8.90
2017-10-29T21:06:45.065Z,8.90
2017-10-29T21:09:13.300Z,8.80
2017-10-29T21:11:40.772Z,8.80
2017-10-29T21:14:08.235Z,8.80
2017-10-29T21:16:35.690Z,8.70
2017-10-29T21:19:03.159Z,8.60
2017-10-29T21:21:31.376Z,8.50
2017-10-29T21:23:58.836Z,8.40
2017-10-29T21:26:26.512Z,8.40
2017-10-29T21:28:53.970Z,8.40
2017-10-29T21:31:21.429Z,8.30
2017-10-29T21:33:49.803Z,8.20
2017-10-29T21:36:17.284Z,8.20
2017-10-29T21:38:44.760Z,8.10
2017-10-29T21:41:13.011Z,8.20
2017-10-29T21:43:40.474Z,8.20
2017-10-29T21:46:08.224Z,8.10
2017-10-29T21:48:35.703Z,8.10
2017-10-29T21:51:03.948Z,8.20
2017-10-29T21:53:31.415Z,8.20
2017-10-29T21:55:58.900Z,8.30
2017-10-29T21:58:27.134Z,8.40
2017-10-29T22:00:54.716Z,8.40
2017-10-29T22:03:22.351Z,8.40
2017-10-29T22:05:49.810Z,8.40
2017-10-29T22:08:17.279Z,8.40
2017-10-29T22:10:44.746Z,8.40
2017-10-29T22:13:12.212Z,8.40
2017-10-29T22:15:40.444Z,8.30
2017-10-29T22:18:07.938Z,8.20
2017-10-29T22:20:35.396Z,8.20
2017-10-29T22:23:03.615Z,8.10
2017-10-29T22:25:31.084Z,8.10
2017-10-29T22:27:58.579Z,8.00
2017-10-29T22:30:26.048Z,8.00
2017-10-29T22:32:53.545Z,8.00
2017-10-29T22:35:21.007Z,8.10
2017-10-29T22:37:48.501Z,8.10
2017-10-29T22:40:15.971Z,8.10
2017-10-29T22:42:44.196Z,8.20
2017-10-29T22:45:11.651Z,8.20
2017-10-29T22:47:39.120Z,8.20
2017-10-29T22:50:06.684Z,8.20
2017-10-29T22:52:34.145Z,8.30
2017-10-29T22:55:01.640Z,8.20
2017-10-29T22:57:29.979Z,8.40
2017-10-29T22:59:57.436Z,8.40
2017-10-29T23:02:25.012Z,8.40
2017-10-29T23:05:04.252Z,8.40
2017-10-29T23:07:39.708Z,8.50
2017-10-29T23:10:07.949Z,8.60
2017-10-29T23:12:35.399Z,8.50
2017-10-29T23:15:02.883Z,8.60
2017-10-29T23:17:31.120Z,8.50
2017-10-29T23:19:58.613Z,8.50
2017-10-29T23:22:26.087Z,8.50
2017-10-29T23:24:53.620Z,8.50
2017-10-29T23:27:21.100Z,8.50
2017-10-29T23:29:49.348Z,8.40
2017-10-29T23:32:16.823Z,8.40
2017-10-29T23:34:44.696Z,8.40
2017-10-29T23:37:12.948Z,8.30
2017-10-29T23:39:40.417Z,8.30
2017-10-29T23:42:08.312Z,8.30
2017-10-29T23:44:36.564Z,8.30
2017-10-29T23:47:04.023Z,8.30
2017-10-29T23:49:32.285Z,8.40
2017-10-29T23:51:59.749Z,8.30
2017-10-29T23:54:27.314Z,8.40
2017-10-29T23:56:55.539Z,8.40
2017-10-29T23:59:23.043Z,8.40
